CST,Max TemperatureF,Mean TemperatureF,Min TemperatureF,Max Dew PointF,MeanDew PointF,Min DewpointF,Max Humidity, Mean Humidity, Min Humidity, Max Sea Level PressureIn, Mean Sea Level PressureIn, Min Sea Level PressureIn, Max VisibilityMiles, Mean VisibilityMiles, Min VisibilityMiles, Max Wind SpeedMPH, Mean Wind SpeedMPH, Max Gust SpeedMPH,PrecipitationIn, CloudCover, Events, WindDirDegrees
2012-1-1,44,35,26,27,21,14,86,60,29,30.64,30.53,30.39,10,10,10,13,9,,0.00,0,,282
2012-1-2,48,36,23,28,24,19,93,68,40,30.71,30.63,30.48,10,10,10,21,6,21,0.00,0,,268
2012-1-3,62,47,32,36,29,25,81,61,32,30.37,30.19,30.07,10,10,10,22,14,25,0.00,0,,248
2012-1-4,57,44,32,28,27,21,80,55,25,30.49,30.38,30.24,10,10,10,21,12,17,0.00,0,,317
2012-1-5,64,48,32,30,25,21,80,52,19,30.31,30.15,29.95,10,10,10,17,11,,0.00,0,,240
2012-1-6,59,46,32,30,27,23,80,57,29,30.02,29.87,29.79,10,10,10,30,15,38,0.00,0,,317
2012-1-7,51,37,23,27,21,18,86,58,28,30.14,30.07,29.95,10,10,10,17,9,25,0.00,0,,210
2012-1-8,41,32,23,25,22,19,93,70,49,30.20,30.14,30.05,10,10,10,16,10,21,0.00,2,,26
2012-1-9,46,34,23,28,22,14,100,72,29,30.27,30.23,30.17,10,10,10,10,6,,0.00,0,,330
2012-1-10,57,42,26,30,26,21,86,61,33,30.11,30.01,29.87,10,10,10,15,9,18,0.00,0,,319
2012-1-11,39,32,26,32,26,21,86,75,60,30.13,29.87,29.68,10,10,5,45,17,54,0.00,4,Rain-Snow,338
2012-1-12,44,30,15,18,9,3,74,49,18,30.23,30.17,30.08,10,10,10,20,11,23,0.00,0,,295
2012-1-13,55,36,17,18,9,3,73,40,13,30.15,30.11,30.06,10,10,10,17,7,24,0.00,0,,269
2012-1-14,57,42,26,16,12,9,59,38,16,30.30,30.20,30.14,10,10,10,15,10,21,0.00,0,,219
2012-1-15,66,49,32,14,12,9,44,27,11,30.10,29.94,29.79,10,10,10,32,20,38,0.00,0,,233
2012-1-16,66,54,42,36,32,25,66,44,28,29.84,29.78,29.70,10,10,10,40,26,53,0.00,0,,234
2012-1-17,37,27,17,28,16,7,93,66,33,30.31,30.20,29.90,10,10,10,20,11,29,0.00,0,,26
2012-1-18,55,38,21,25,19,10,74,50,26,30.20,30.03,29.83,10,10,10,22,13,,0.00,0,,209
2012-1-19,62,50,37,28,23,21,57,38,22,29.92,29.84,29.77,10,10,10,22,14,22,0.00,0,,216
2012-1-20,66,52,37,30,28,25,65,44,23,30.01,29.76,29.62,10,10,10,30,15,37,0.00,0,,1
2012-1-21,66,42,19,28,22,16,86,58,19,30.09,29.92,29.59,10,10,10,32,11,40,0.00,0,,217
2012-1-22,57,44,32,37,26,21,87,45,27,29.94,29.58,29.41,10,9,4,52,23,64,0.01,1,Rain,279
2012-1-23,53,37,21,28,20,16,80,54,24,30.02,29.95,29.84,10,10,10,22,8,25,0.00,0,,209
2012-1-24,53,42,32,28,24,18,70,47,30,30.06,29.90,29.83,10,10,10,26,12,34,0.00,0,,151
2012-1-25,53,40,28,30,23,16,93,61,24,30.19,30.09,29.95,10,10,10,29,16,32,0.00,0,,340
2012-1-26,57,42,28,28,21,16,65,47,23,30.16,30.07,29.98,10,10,10,17,7,23,0.00,0,,336
2012-1-27,53,42,32,32,25,18,69,48,33,30.27,29.94,29.75,10,10,10,40,19,46,0.00,2,,328
2012-1-28,50,34,19,19,15,10,80,49,27,30.44,30.37,30.28,10,10,10,20,10,26,0.00,2,,249
2012-1-29,60,42,24,21,16,9,74,44,14,30.27,30.23,30.17,10,10,10,16,10,,0.00,0,,230
2012-1-30,69,50,32,18,13,9,51,31,12,30.12,29.93,29.82,10,10,10,22,12,25,0.00,0,,226
2012-1-31,59,46,33,21,16,10,48,30,20,30.07,29.99,29.85,10,10,7,18,13,22,0.00,0,,343